메인 페이지
METAR-TAF:

METAR-TAF

공항 :

니아메, 니제르

위도: 13-29N, 경도: 002-10E, 고도: 223m

현재 날씨관측

예보는 48분 전, 14:00시(UTC)에 발표되었습니다.
8kt, 순간 최대 풍속 20kt남남서풍과 북서풍을 오가는
온도 41°C
습도 17%
기압 1006 hPa
시정 10km 이상
1500m 미만 상공 구름 및 적란운 없음

METAR: DRRN 251400Z 27008G20KT 210V310 CAVOK 41/11 Q1006 NOSIG

시각: 15:48 (14:48 UTC)

예보

예보는 3 시간 48분 전, 11:00시(UTC)에 발표되었습니다.
예보 대상 시간: 25일 12시부터 26일 18시까지 (UTC)
서남서10kt
시정: 8000m
확률 30% :
일시적
25일 14시부터 25일 19시까지 (UTC)
고도 4000ft 상공 구름 조금, 적란운.
뇌우
확률 30% :
일시적
25일 22시부터 26일 04시까지 (UTC)
20kt, 순간 최대 풍속 35kt
시정: 1200m
고도 3000ft 상공 구름 보통
고도 4000ft 상공 구름 조금, 적란운.
날린먼지, 뇌우, 약한비

TAF: DRRN 251100Z 2512/2618 24010KT 8000 NSC PROB30 TEMPO 2514/2519 TS FEW040CB PROB30 TEMPO 2522/2604 08020G35KT 1200 BLDU -TSRA SCT030 FEW040CB

4,000개 이상의 공항 관측 자료 및 예보 (METAR 및 TAF 보고).

지도상에서 검색 가능한 기상관측소가 노란 점과 빨간 점으로 표시되어 있습니다.

기상관측소 명을 보려면 표시 위로 마우스를 이동하세요.

날씨 관측과 예보를 보려면 클릭하세요.

지도 변경 : 확대하려면 엑스 표시가 있는 녹색 버튼, 축소하려면 빼기 표시가 있는 녹색 버튼, 다음 페이지의 지도를 보려면 녹색 화살표를 클릭하세요.


METAR-TAF: